createdAt,value
2023-01-27T00:01:49.562Z,60515.72
2023-01-27T00:04:18.158Z,60533.25
2023-01-27T00:06:48.130Z,60534.44
2023-01-27T00:09:17.279Z,60531.41
2023-01-27T00:12:03.291Z,60542.97
2023-01-27T00:14:31.987Z,60536.84
2023-01-27T00:17:00.551Z,60543.38
2023-01-27T00:19:28.996Z,60547.88
2023-01-27T00:22:16.272Z,60550.81
2023-01-27T00:24:46.929Z,60546.69
2023-01-27T00:27:15.501Z,60545.75
2023-01-27T00:29:44.047Z,60553.59
2023-01-27T00:32:29.856Z,60553.22
2023-01-27T00:34:58.628Z,60560.50
2023-01-27T00:37:28.948Z,60561.69
2023-01-27T00:39:57.409Z,60561.69
2023-01-27T00:42:25.907Z,60561.84
2023-01-27T00:45:17.040Z,60540.31
2023-01-27T00:47:45.714Z,60539.25
2023-01-27T00:50:14.314Z,60546.31
2023-01-27T00:52:44.273Z,60545.75
2023-01-27T00:55:15.965Z,60545.75
2023-01-27T00:57:45.391Z,60540.31
2023-01-27T01:00:16.062Z,60544.44
2023-01-27T01:02:44.582Z,60545.50
2023-01-27T01:05:12.907Z,60543.63
2023-01-27T01:07:41.267Z,60547.22
2023-01-27T01:10:12.535Z,60550.94
2023-01-27T01:12:41.173Z,60545.75
2023-01-27T01:15:10.592Z,60560.38
2023-01-27T01:17:39.018Z,60554.78
2023-01-27T01:20:08.834Z,60561.03
2023-01-27T01:22:38.422Z,60565.69
2023-01-27T01:25:08.027Z,60553.88
2023-01-27T01:27:37.773Z,60562.50
2023-01-27T01:30:09.421Z,60556.78
2023-01-27T01:32:37.819Z,60555.75
2023-01-27T01:35:07.126Z,60550.94
2023-01-27T01:37:35.466Z,60552.53
2023-01-27T01:40:03.882Z,60562.00
2023-01-27T01:42:56.351Z,60558.94
2023-01-27T01:45:50.697Z,60551.59
2023-01-27T01:48:31.712Z,60552.13
2023-01-27T01:51:05.982Z,60554.25
2023-01-27T01:53:41.497Z,60556.28
2023-01-27T01:56:17.088Z,60561.03
2023-01-27T01:58:48.076Z,60553.59
2023-01-27T02:01:20.108Z,60557.84
2023-01-27T02:03:55.251Z,60564.91
2023-01-27T02:06:24.068Z,60571.69
2023-01-27T02:08:53.061Z,60560.50
2023-01-27T02:11:21.857Z,60564.78
2023-01-27T02:13:52.686Z,60564.91
2023-01-27T02:16:21.108Z,60564.22
2023-01-27T02:18:50.483Z,60566.38
2023-01-27T02:21:19.586Z,60569.84
2023-01-27T02:23:58.017Z,60562.13
2023-01-27T02:26:31.669Z,60558.50
2023-01-27T02:29:04.223Z,60567.44
2023-01-27T02:31:33.157Z,60564.66
2023-01-27T02:34:06.370Z,60560.66
2023-01-27T02:36:40.291Z,60559.97
2023-01-27T02:39:13.968Z,60556.41
2023-01-27T02:41:48.377Z,60563.19
2023-01-27T02:44:16.781Z,60563.84
2023-01-27T02:46:45.672Z,60568.75
2023-01-27T02:49:14.136Z,60570.22
2023-01-27T02:51:42.689Z,60570.75
2023-01-27T02:54:12.135Z,60578.06
2023-01-27T02:56:40.600Z,60566.38
2023-01-27T02:59:12.331Z,60569.16
2023-01-27T03:01:43.213Z,60567.44
2023-01-27T03:04:12.061Z,60580.34
2023-01-27T03:06:40.980Z,60623.19
2023-01-27T03:09:10.032Z,60657.91
2023-01-27T03:11:57.197Z,60652.56
2023-01-27T03:14:44.540Z,60651.91
2023-01-27T03:17:32.015Z,60602.25
2023-01-27T03:20:00.416Z,60592.56
2023-01-27T03:22:29.127Z,60584.56
2023-01-27T03:24:57.564Z,60583.41
2023-01-27T03:27:26.976Z,60582.34
2023-01-27T03:30:20.565Z,60572.88
2023-01-27T03:32:59.180Z,60572.22
2023-01-27T03:35:48.271Z,60575.28
2023-01-27T03:38:38.020Z,60570.22
2023-01-27T03:41:24.483Z,60573.28
2023-01-27T03:44:10.660Z,60583.41
2023-01-27T03:46:40.473Z,60588.72
2023-01-27T03:49:08.839Z,60584.44
2023-01-27T03:51:37.164Z,60585.25
2023-01-27T03:54:05.649Z,60581.25
2023-01-27T03:56:34.020Z,60577.00
2023-01-27T03:59:02.501Z,60577.53
2023-01-27T04:01:30.979Z,60578.06
2023-01-27T04:04:18.158Z,60581.78
2023-01-27T04:06:58.221Z,60576.63
2023-01-27T04:09:29.053Z,60579.81
2023-01-27T04:12:00.003Z,60584.44
2023-01-27T04:14:31.002Z,60586.59
2023-01-27T04:17:02.078Z,60591.38
2023-01-27T04:19:32.519Z,60591.91
2023-01-27T04:22:02.254Z,60592.56
2023-01-27T04:24:31.018Z,60590.16
2023-01-27T04:27:01.791Z,60584.44
2023-01-27T04:29:34.853Z,60576.63
2023-01-27T04:32:03.881Z,60579.25
2023-01-27T04:34:33.960Z,60583.00
2023-01-27T04:37:04.953Z,60585.00
2023-01-27T04:39:33.900Z,60584.88
2023-01-27T04:42:02.561Z,60590.31
2023-01-27T04:44:31.440Z,60583.91
2023-01-27T04:46:59.811Z,60579.16
2023-01-27T04:49:28.265Z,60578.31
2023-01-27T04:51:58.010Z,60585.09
2023-01-27T04:54:26.416Z,60589.66
2023-01-27T04:57:00.349Z,60588.97
2023-01-27T04:59:29.341Z,60579.81
2023-01-27T05:01:57.847Z,60589.78
2023-01-27T05:04:27.395Z,60590.84
2023-01-27T05:06:57.155Z,60583.00
2023-01-27T05:09:25.791Z,60583.91
2023-01-27T05:11:54.128Z,60584.88
2023-01-27T05:14:23.637Z,60587.25
2023-01-27T05:16:52.268Z,60596.16
2023-01-27T05:19:20.705Z,60582.56
2023-01-27T05:21:49.133Z,60593.63
2023-01-27T05:24:18.917Z,60602.44
2023-01-27T05:26:47.513Z,60602.13
2023-01-27T05:29:15.965Z,60595.63
2023-01-27T05:31:44.473Z,60592.97
2023-01-27T05:34:12.830Z,60592.03
2023-01-27T05:36:41.299Z,60595.63
2023-01-27T05:39:12.520Z,60612.94
2023-01-27T05:41:42.644Z,60601.47
2023-01-27T05:44:13.315Z,60602.53
2023-01-27T05:46:43.067Z,60609.72
2023-01-27T05:49:11.774Z,60592.56
2023-01-27T05:51:41.361Z,60601.09
2023-01-27T05:54:10.876Z,60595.38
2023-01-27T05:56:41.194Z,60596.69
2023-01-27T05:59:11.972Z,60597.75
2023-01-27T06:01:41.072Z,60592.31
2023-01-27T06:04:11.000Z,60588.72
2023-01-27T06:06:39.436Z,60593.38
2023-01-27T06:09:08.029Z,60596.28
2023-01-27T06:11:36.497Z,60585.09
2023-01-27T06:14:06.931Z,60594.03
2023-01-27T06:16:35.420Z,60589.38
2023-01-27T06:19:03.918Z,60587.09
2023-01-27T06:21:32.459Z,60597.88
2023-01-27T06:24:00.954Z,60593.22
2023-01-27T06:26:29.517Z,60595.34
2023-01-27T06:28:58.764Z,60607.34
2023-01-27T06:31:28.736Z,60605.19
2023-01-27T06:33:57.244Z,60600.94
2023-01-27T06:36:25.777Z,60601.47
2023-01-27T06:38:54.238Z,60612.66
2023-01-27T06:41:22.657Z,60608.53
2023-01-27T06:43:51.082Z,60609.47
2023-01-27T06:46:19.677Z,60615.31
2023-01-27T06:48:49.689Z,60620.09
2023-01-27T06:51:18.123Z,60619.03
2023-01-27T06:53:46.700Z,60624.91
2023-01-27T06:56:16.520Z,60623.31
2023-01-27T06:58:46.045Z,60615.44
2023-01-27T07:01:14.638Z,60600.41
2023-01-27T07:03:44.792Z,60626.78
2023-01-27T07:06:16.207Z,60627.03
2023-01-27T07:08:45.982Z,60620.22
2023-01-27T07:11:14.473Z,60634.47
2023-01-27T07:13:42.985Z,60631.81
2023-01-27T07:16:11.527Z,60632.34
2023-01-27T07:18:40.035Z,60632.88
2023-01-27T07:21:08.688Z,60636.47
2023-01-27T07:23:38.535Z,60630.22
2023-01-27T07:26:19.259Z,60631.28
2023-01-27T07:28:53.384Z,60633.00
2023-01-27T07:31:21.990Z,60641.94
2023-01-27T07:33:50.683Z,60639.28
2023-01-27T07:36:19.226Z,60633.41
2023-01-27T07:38:52.328Z,60630.75
2023-01-27T07:41:23.043Z,60637.66
2023-01-27T07:43:52.541Z,60636.59
2023-01-27T07:46:21.564Z,60644.06
2023-01-27T07:48:50.225Z,60632.59
2023-01-27T07:51:18.688Z,60638.75
2023-01-27T07:53:47.300Z,60631.28
2023-01-27T07:56:17.104Z,60634.06
2023-01-27T07:58:45.601Z,60640.84
2023-01-27T08:01:14.843Z,60641.94
2023-01-27T08:03:43.265Z,60648.31
2023-01-27T08:06:13.713Z,60650.03
2023-01-27T08:08:42.361Z,60655.78
2023-01-27T08:11:14.057Z,60661.75
2023-01-27T08:13:44.263Z,60670.03
2023-01-27T08:16:15.933Z,60667.59
2023-01-27T08:18:44.393Z,60673.88
2023-01-27T08:21:14.147Z,60666.41
2023-01-27T08:23:42.810Z,60679.09
2023-01-27T08:26:11.349Z,60683.19
2023-01-27T08:28:41.532Z,60687.31
2023-01-27T08:31:14.451Z,60696.75
2023-01-27T08:33:45.066Z,60698.50
2023-01-27T08:36:16.182Z,60696.75
2023-01-27T08:38:46.554Z,60698.91
2023-01-27T08:41:22.318Z,60706.25
2023-01-27T08:43:51.229Z,60709.44
2023-01-27T08:46:21.225Z,60716.47
2023-01-27T08:48:50.342Z,60721.81
2023-01-27T08:51:18.961Z,60716.34
2023-01-27T08:53:47.435Z,60702.09
2023-01-27T08:56:16.948Z,60701.03
2023-01-27T08:58:47.396Z,60697.31
2023-01-27T09:01:17.521Z,60682.94
2023-01-27T09:03:47.604Z,60678.66
2023-01-27T09:06:18.018Z,60674.66
2023-01-27T09:09:07.894Z,60672.16
2023-01-27T09:11:39.464Z,60679.19
2023-01-27T09:14:08.323Z,60682.28
2023-01-27T09:16:37.050Z,60685.59
2023-01-27T09:19:07.034Z,60691.47
2023-01-27T09:21:35.551Z,60695.97
2023-01-27T09:24:05.319Z,60700.09
2023-01-27T09:26:33.850Z,60689.84
2023-01-27T09:29:02.345Z,60697.97
2023-01-27T09:31:31.023Z,60706.25
2023-01-27T09:33:59.477Z,60704.09
2023-01-27T09:36:29.876Z,60708.91
2023-01-27T09:39:02.990Z,60692.13
2023-01-27T09:41:52.574Z,60701.56
2023-01-27T09:44:43.449Z,60698.91
2023-01-27T09:47:35.722Z,60718.09
2023-01-27T09:50:26.706Z,60711.28
2023-01-27T09:53:38.818Z,60715.81
2023-01-27T09:56:15.019Z,60730.88
2023-01-27T09:59:04.737Z,60725.00
2023-01-27T10:01:43.650Z,60730.47
2023-01-27T10:04:51.640Z,60728.19
2023-01-27T10:07:47.933Z,60737.78
2023-01-27T10:10:33.537Z,60744.59
2023-01-27T10:13:19.044Z,60738.88
2023-01-27T10:16:20.402Z,60738.34
2023-01-27T10:19:19.384Z,60732.88
2023-01-27T10:21:55.603Z,60724.06
2023-01-27T10:24:39.903Z,60727.81
2023-01-27T10:27:18.474Z,60725.00
2023-01-27T10:29:48.587Z,60734.59
2023-01-27T10:32:27.954Z,60722.59
2023-01-27T10:35:10.644Z,60720.22
2023-01-27T10:37:55.290Z,60729.69
2023-01-27T10:40:39.999Z,60736.47
2023-01-27T10:43:16.721Z,60742.72
2023-01-27T10:45:55.216Z,60733.13
2023-01-27T10:48:38.737Z,60740.97
2023-01-27T10:51:13.248Z,60736.72
2023-01-27T10:53:52.340Z,60743.53
2023-01-27T10:56:31.586Z,60725.25
2023-01-27T10:59:12.120Z,60723.00
2023-01-27T11:01:46.317Z,60726.06
2023-01-27T11:04:30.026Z,60723.13
2023-01-27T11:07:00.743Z,60737.13
2023-01-27T11:09:32.931Z,60741.81
2023-01-27T11:12:05.425Z,60738.88
2023-01-27T11:14:46.351Z,60741.13
2023-01-27T11:17:26.803Z,60757.75
2023-01-27T11:20:05.604Z,60775.09
2023-01-27T11:22:41.555Z,60772.97
2023-01-27T11:25:26.013Z,60778.94
2023-01-27T11:28:06.938Z,60780.03
2023-01-27T11:30:44.545Z,60774.03
2023-01-27T11:33:24.712Z,60777.25
2023-01-27T11:35:54.687Z,60772.56
2023-01-27T11:38:24.607Z,60785.34
2023-01-27T11:40:56.471Z,60781.91
2023-01-27T11:43:27.392Z,60786.56
2023-01-27T11:46:04.126Z,60772.84
2023-01-27T11:48:41.278Z,60758.03
2023-01-27T11:51:21.965Z,60765.25
2023-01-27T11:54:04.640Z,60773.50
2023-01-27T11:56:35.388Z,60778.28
2023-01-27T11:59:08.070Z,60783.22
2023-01-27T12:01:48.457Z,60789.63
2023-01-27T12:04:24.361Z,60793.75
2023-01-27T12:06:58.367Z,60795.22
2023-01-27T12:09:36.860Z,60798.56
2023-01-27T12:12:22.842Z,60808.16
2023-01-27T12:14:55.164Z,60798.56
2023-01-27T12:17:34.051Z,60806.56
2023-01-27T12:20:07.567Z,60809.63
2023-01-27T12:22:42.167Z,60815.50
2023-01-27T12:25:21.207Z,60829.25
2023-01-27T12:27:54.492Z,60829.47
2023-01-27T12:30:26.385Z,60810.94
2023-01-27T12:32:57.434Z,60824.97
2023-01-27T12:35:30.615Z,60817.75
2023-01-27T12:38:03.876Z,60811.34
2023-01-27T12:40:35.842Z,60809.75
2023-01-27T12:43:16.029Z,60818.28
2023-01-27T12:45:46.208Z,60827.34
2023-01-27T12:48:22.904Z,60830.56
2023-01-27T12:51:07.095Z,60828.41
2023-01-27T12:53:35.874Z,60836.28
2023-01-27T12:56:13.595Z,60820.53
2023-01-27T12:58:44.948Z,60828.81
2023-01-27T13:01:37.539Z,60822.03
2023-01-27T13:04:15.498Z,60820.72
2023-01-27T13:06:47.980Z,60829.47
2023-01-27T13:09:30.067Z,60834.16
2023-01-27T13:12:02.078Z,60840.16
2023-01-27T13:14:34.561Z,60853.78
2023-01-27T13:17:03.657Z,60850.41
2023-01-27T13:19:44.096Z,60850.81
2023-01-27T13:22:20.151Z,60846.41
2023-01-27T13:24:54.199Z,60840.03
2023-01-27T13:27:24.852Z,60851.22
2023-01-27T13:30:03.913Z,60849.75
2023-01-27T13:32:36.427Z,60850.81
2023-01-27T13:35:18.509Z,60851.59
2023-01-27T13:38:01.974Z,60856.16
2023-01-27T13:40:35.245Z,60862.00
2023-01-27T13:43:12.075Z,60873.09
2023-01-27T13:45:42.919Z,60868.97
2023-01-27T13:48:19.280Z,60866.28
2023-01-27T13:50:53.178Z,60871.63
2023-01-27T13:53:21.980Z,60855.09
2023-01-27T13:56:13.002Z,60853.38
2023-01-27T13:58:54.470Z,60849.09
2023-01-27T14:01:32.023Z,60843.88
2023-01-27T14:04:23.924Z,60850.56
2023-01-27T14:07:12.968Z,60850.16
2023-01-27T14:09:58.083Z,60843.34
2023-01-27T14:12:43.263Z,60842.00
2023-01-27T14:15:29.985Z,60859.63
2023-01-27T14:18:06.856Z,60856.03
2023-01-27T14:21:02.281Z,60855.50
2023-01-27T14:23:48.139Z,60838.78
2023-01-27T14:26:32.743Z,60855.91
2023-01-27T14:29:16.198Z,60849.75
2023-01-27T14:31:52.772Z,60868.56
2023-01-27T14:34:37.039Z,60864.69
2023-01-27T14:37:19.064Z,60862.56
2023-01-27T14:40:04.142Z,60866.81
2023-01-27T14:42:40.186Z,60862.00
2023-01-27T14:45:20.759Z,60867.22
2023-01-27T14:47:59.353Z,60866.69
2023-01-27T14:50:36.594Z,60864.03
2023-01-27T14:53:22.588Z,60858.81
2023-01-27T14:56:03.689Z,60867.22
2023-01-27T14:58:46.043Z,60857.22
2023-01-27T15:01:28.498Z,60858.41
2023-01-27T15:04:50.234Z,60857.63
2023-01-27T15:07:25.669Z,60852.94
2023-01-27T15:10:23.116Z,60857.22
2023-01-27T15:13:28.766Z,60845.50
2023-01-27T15:16:27.661Z,60838.66
2023-01-27T15:19:26.726Z,60843.59
2023-01-27T15:22:43.430Z,60852.53
2023-01-27T15:25:33.354Z,60848.28
2023-01-27T15:28:04.788Z,60845.75
2023-01-27T15:30:38.031Z,60863.63
2023-01-27T15:33:51.020Z,60864.28
2023-01-27T15:36:36.704Z,60867.78
2023-01-27T15:39:35.517Z,60868.97
2023-01-27T15:42:14.176Z,60865.34
2023-01-27T15:45:02.843Z,60864.69
2023-01-27T15:47:35.202Z,60860.03
2023-01-27T15:50:15.515Z,60856.16
2023-01-27T15:52:46.496Z,60858.28
2023-01-27T15:55:28.025Z,60852.41
2023-01-27T15:58:08.127Z,60850.28
2023-01-27T16:00:40.425Z,60848.69
2023-01-27T16:03:24.059Z,60855.09
2023-01-27T16:05:56.590Z,60847.63
2023-01-27T16:08:26.839Z,60855.09
2023-01-27T16:11:26.594Z,60848.69
2023-01-27T16:14:39.036Z,60846.28
2023-01-27T16:17:20.007Z,60858.16
2023-01-27T16:19:58.849Z,60846.03
2023-01-27T16:22:29.846Z,60845.34
2023-01-27T16:25:02.919Z,60839.63
2023-01-27T16:27:41.584Z,60845.75
2023-01-27T16:30:19.714Z,60844.00
2023-01-27T16:33:07.526Z,60833.75
2023-01-27T16:35:43.963Z,60836.56
2023-01-27T16:38:23.696Z,60834.41
2023-01-27T16:40:57.385Z,60844.44
2023-01-27T16:43:33.128Z,60845.50
2023-01-27T16:46:02.963Z,60834.81
2023-01-27T16:48:39.541Z,60836.94
2023-01-27T16:51:15.433Z,60840.69
2023-01-27T16:53:49.080Z,60841.22
2023-01-27T16:56:29.102Z,60836.94
2023-01-27T16:59:04.188Z,60839.63
2023-01-27T17:01:40.973Z,60834.16
2023-01-27T17:04:20.334Z,60832.16
2023-01-27T17:06:54.036Z,60830.03
2023-01-27T17:09:26.379Z,60829.06
2023-01-27T17:11:55.747Z,60834.69
2023-01-27T17:14:32.149Z,60833.22
2023-01-27T17:17:04.117Z,60827.47
2023-01-27T17:19:36.268Z,60828.94
2023-01-27T17:22:10.153Z,60826.81
2023-01-27T17:24:45.412Z,60830.56
2023-01-27T17:27:25.580Z,60825.22
2023-01-27T17:30:02.831Z,60829.47
2023-01-27T17:32:35.238Z,60832.69
2023-01-27T17:35:09.640Z,60831.88
2023-01-27T17:37:44.102Z,60826.28
2023-01-27T17:40:17.811Z,60819.47
2023-01-27T17:42:46.710Z,60822.03
2023-01-27T17:45:25.265Z,60831.63
2023-01-27T17:47:54.145Z,60820.97
2023-01-27T17:50:27.670Z,60816.28
2023-01-27T17:52:57.454Z,60830.56
2023-01-27T17:55:28.263Z,60816.28
2023-01-27T17:58:13.583Z,60818.81
2023-01-27T18:00:45.329Z,60801.09
2023-01-27T18:03:20.258Z,60802.28
2023-01-27T18:05:54.081Z,60807.75
2023-01-27T18:08:23.931Z,60808.16
2023-01-27T18:10:53.122Z,60799.09
2023-01-27T18:13:38.388Z,60800.03
2023-01-27T18:16:16.249Z,60806.44
2023-01-27T18:18:45.152Z,60793.88
2023-01-27T18:21:19.151Z,60800.28
2023-01-27T18:23:50.335Z,60794.31
2023-01-27T18:26:23.875Z,60794.84
2023-01-27T18:28:55.838Z,60787.34
2023-01-27T18:31:27.648Z,60788.31
2023-01-27T18:34:01.797Z,60794.31
2023-01-27T18:36:35.697Z,60787.88
2023-01-27T18:39:06.561Z,60785.78
2023-01-27T18:41:38.137Z,60784.28
2023-01-27T18:44:08.493Z,60789.22
2023-01-27T18:46:36.981Z,60795.75
2023-01-27T18:49:10.434Z,60788.44
2023-01-27T18:51:40.193Z,60792.81
2023-01-27T18:54:11.826Z,60792.16
2023-01-27T18:56:40.348Z,60790.16
2023-01-27T18:59:16.971Z,60787.47
2023-01-27T19:01:45.522Z,60780.44
2023-01-27T19:04:14.137Z,60776.28
2023-01-27T19:06:43.958Z,60781.91
2023-01-27T19:09:12.416Z,60794.56
2023-01-27T19:11:40.961Z,60788.84
2023-01-27T19:14:10.792Z,60780.44
2023-01-27T19:16:39.329Z,60781.50
2023-01-27T19:19:11.705Z,60779.34
2023-01-27T19:21:40.213Z,60775.75
2023-01-27T19:24:12.745Z,60772.16
2023-01-27T19:26:41.493Z,60776.59
2023-01-27T19:29:12.470Z,60778.28
2023-01-27T19:31:41.157Z,60776.16
2023-01-27T19:34:12.395Z,60765.50
2023-01-27T19:36:45.715Z,60769.09
2023-01-27T19:39:17.963Z,60775.38
2023-01-27T19:41:46.927Z,60772.97
2023-01-27T19:44:16.027Z,60768.19
2023-01-27T19:46:45.035Z,60771.66
2023-01-27T19:49:17.748Z,60764.97
2023-01-27T19:51:46.625Z,60768.06
2023-01-27T19:54:17.068Z,60762.84
2023-01-27T19:56:46.042Z,60776.16
2023-01-27T19:59:14.787Z,60763.38
2023-01-27T20:01:44.026Z,60758.16
2023-01-27T20:04:12.562Z,60754.84
2023-01-27T20:06:41.055Z,60748.06
2023-01-27T20:09:10.932Z,60751.25
2023-01-27T20:11:42.459Z,60750.59
2023-01-27T20:14:14.885Z,60741.25
2023-01-27T20:16:47.175Z,60741.25
2023-01-27T20:19:16.878Z,60745.91
2023-01-27T20:21:46.748Z,60741.53
2023-01-27T20:24:16.997Z,60745.38
2023-01-27T20:26:47.532Z,60748.97
2023-01-27T20:29:15.966Z,60754.19
2023-01-27T20:31:44.600Z,60769.09
2023-01-27T20:34:12.961Z,60753.38
2023-01-27T20:36:41.402Z,60761.38
2023-01-27T20:39:12.843Z,60759.66
2023-01-27T20:41:41.320Z,60751.78
2023-01-27T20:44:13.381Z,60753.38
2023-01-27T20:46:42.100Z,60752.72
2023-01-27T20:49:10.532Z,60752.97
2023-01-27T20:51:42.781Z,60760.56
2023-01-27T20:54:13.049Z,60753.78
2023-01-27T20:56:41.625Z,60760.72
2023-01-27T20:59:11.413Z,60758.47
2023-01-27T21:01:40.917Z,60747.78
2023-01-27T21:04:12.197Z,60743.13
2023-01-27T21:06:40.741Z,60758.56
2023-01-27T21:09:11.528Z,60748.44
2023-01-27T21:11:40.413Z,60751.13
2023-01-27T21:14:14.658Z,60741.25
2023-01-27T21:16:43.223Z,60740.06
2023-01-27T21:19:13.394Z,60747.41
2023-01-27T21:21:42.584Z,60754.84
2023-01-27T21:24:11.173Z,60744.19
2023-01-27T21:26:39.887Z,60744.72
2023-01-27T21:29:10.173Z,60744.44
2023-01-27T21:31:49.428Z,60736.72
2023-01-27T21:34:18.439Z,60750.47
2023-01-27T21:36:47.241Z,60740.97
2023-01-27T21:39:17.840Z,60744.19
2023-01-27T21:42:06.100Z,60747.78
2023-01-27T21:44:52.523Z,60733.25
2023-01-27T21:47:26.353Z,60735.25
2023-01-27T21:50:04.349Z,60731.53
2023-01-27T21:52:38.021Z,60730.34
2023-01-27T21:55:09.813Z,60724.59
2023-01-27T21:57:54.707Z,60738.75
2023-01-27T22:00:26.038Z,60734.06
2023-01-27T22:02:58.795Z,60718.63
2023-01-27T22:05:29.939Z,60733.53
2023-01-27T22:07:58.855Z,60725.53
2023-01-27T22:10:32.202Z,60712.22
2023-01-27T22:13:05.594Z,60716.88
2023-01-27T22:15:34.567Z,60715.81
2023-01-27T22:18:04.401Z,60718.22
2023-01-27T22:20:33.100Z,60721.81
2023-01-27T22:23:01.606Z,60723.41
2023-01-27T22:25:30.053Z,60715.56
2023-01-27T22:27:58.616Z,60725.81
2023-01-27T22:30:27.230Z,60717.66
2023-01-27T22:32:55.756Z,60727.16
2023-01-27T22:35:28.944Z,60721.69
2023-01-27T22:37:57.565Z,60706.91
2023-01-27T22:40:25.954Z,60708.75
2023-01-27T22:42:54.335Z,60714.75
2023-01-27T22:45:22.819Z,60725.66
2023-01-27T22:47:52.011Z,60710.09
2023-01-27T22:50:21.332Z,60704.75
2023-01-27T22:52:51.217Z,60708.38
2023-01-27T22:55:20.374Z,60688.78
2023-01-27T22:57:48.888Z,60700.91
2023-01-27T23:00:20.842Z,60705.84
2023-01-27T23:02:49.375Z,60705.84
2023-01-27T23:05:18.054Z,60708.91
2023-01-27T23:07:48.515Z,60712.63
2023-01-27T23:10:19.625Z,60725.00
2023-01-27T23:12:48.133Z,60704.75
2023-01-27T23:15:17.335Z,60692.25
2023-01-27T23:17:46.762Z,60699.44
2023-01-27T23:20:21.752Z,60698.38
2023-01-27T23:22:50.668Z,60702.09
2023-01-27T23:25:23.380Z,60706.38
2023-01-27T23:27:52.020Z,60703.69
2023-01-27T23:30:23.583Z,60691.97
2023-01-27T23:32:52.090Z,60702.63
2023-01-27T23:35:20.548Z,60692.63
2023-01-27T23:37:48.986Z,60701.97
2023-01-27T23:40:19.357Z,60691.97
2023-01-27T23:42:47.754Z,60682.41
2023-01-27T23:45:16.592Z,60687.19
2023-01-27T23:47:45.157Z,60683.47
2023-01-27T23:50:13.708Z,60672.28
2023-01-27T23:52:42.143Z,60673.88
2023-01-27T23:55:13.147Z,60674.53
2023-01-27T23:57:43.166Z,60668.16
